Time;durP1;ratioP1;P1;durP2;ratioP2;P2;SDS_P1;SDS_P2;PMS_P1;PMS_P2;Temp;Humidity;BMP_temperature;BMP_pressure;BME280_temperature;BME280_humidity;BME280_pressure;Samples;Min_cycle;Max_cycle;Signal;HPM_P1;HPM_P2
2021/09/04 00:01:48;;;;;;;19.13;5.13;;;13.70;99.90;;;;;;4996518;28;20061;-75
2021/09/04 00:04:14;;;;;;;14.43;5.63;;;13.70;99.90;;;;;;4995394;28;20507;-75
2021/09/04 00:06:39;;;;;;;13.45;5.82;;;13.70;99.90;;;;;;4994978;28;20024;-75
2021/09/04 00:09:05;;;;;;;18.02;5.72;;;13.60;99.90;;;;;;4977940;28;20032;-76
2021/09/04 00:11:31;;;;;;;16.75;6.18;;;13.70;99.90;;;;;;5000428;28;20026;-74
2021/09/04 00:13:57;;;;;;;14.88;5.00;;;13.60;99.90;;;;;;5015257;28;20026;-74
2021/09/04 00:16:23;;;;;;;14.52;5.25;;;13.60;99.90;;;;;;5015263;28;20116;-74
2021/09/04 00:18:48;;;;;;;15.98;5.15;;;13.50;99.90;;;;;;5014940;28;20491;-74
2021/09/04 00:21:14;;;;;;;16.52;5.47;;;13.50;99.90;;;;;;5014713;28;20022;-74
2021/09/04 00:23:40;;;;;;;12.88;5.30;;;13.50;99.90;;;;;;5014723;28;20032;-74
2021/09/04 00:26:05;;;;;;;18.05;5.90;;;13.50;99.90;;;;;;5014546;28;20553;-74
2021/09/04 00:28:31;;;;;;;19.70;5.65;;;13.50;99.90;;;;;;5014361;28;20106;-74
2021/09/04 00:30:56;;;;;;;14.65;5.72;;;13.50;99.90;;;;;;5014350;28;20057;-74
2021/09/04 00:33:22;;;;;;;15.82;4.80;;;13.40;99.90;;;;;;5014370;28;20054;-74
2021/09/04 00:35:47;;;;;;;17.38;5.85;;;13.40;99.90;;;;;;4996858;28;20543;-74
2021/09/04 00:38:13;;;;;;;15.60;7.03;;;13.30;99.90;;;;;;4996727;28;20048;-74
2021/09/04 00:40:38;;;;;;;16.67;5.80;;;13.30;99.90;;;;;;5014277;28;20065;-74
2021/09/04 00:43:04;;;;;;;22.73;6.57;;;13.30;99.90;;;;;;5014762;28;20495;-74
2021/09/04 00:45:29;;;;;;;12.80;5.85;;;13.30;99.90;;;;;;5014599;28;20107;-74
2021/09/04 00:48:01;;;;;;;19.38;5.90;;;13.20;99.90;;;;;;5014131;28;20030;-74
2021/09/04 00:50:29;;;;;;;19.52;6.22;;;13.20;99.90;;;;;;5014777;28;20088;-74
2021/09/04 00:52:55;;;;;;;17.58;6.07;;;13.20;99.90;;;;;;5014078;28;20025;-74
2021/09/04 00:55:21;;;;;;;14.85;5.18;;;13.10;99.90;;;;;;5013738;28;20030;-74
2021/09/04 00:57:47;;;;;;;14.10;4.65;;;13.10;99.90;;;;;;4996336;28;20022;-73
2021/09/04 01:00:14;;;;;;;16.33;5.75;;;13.10;99.90;;;;;;5009640;28;20053;-73
2021/09/04 01:02:39;;;;;;;16.42;5.45;;;13.10;99.90;;;;;;4976980;28;20456;-75
2021/09/04 01:05:09;;;;;;;16.63;5.95;;;13.10;99.90;;;;;;4994058;28;20061;-74
2021/09/04 01:07:36;;;;;;;19.63;5.70;;;13.00;99.90;;;;;;4994181;28;20030;-74
2021/09/04 01:10:03;;;;;;;14.15;5.68;;;13.10;99.90;;;;;;4996662;28;20027;-74
2021/09/04 01:12:28;;;;;;;21.20;5.97;;;13.00;99.90;;;;;;5013906;28;20037;-74
2021/09/04 01:14:54;;;;;;;18.52;5.28;;;13.00;99.90;;;;;;4996090;28;20030;-73
2021/09/04 01:17:20;;;;;;;14.65;4.93;;;13.00;99.90;;;;;;5014012;28;20079;-76
2021/09/04 01:19:45;;;;;;;21.20;6.82;;;12.90;99.90;;;;;;4982977;28;20546;-76
2021/09/04 01:22:11;;;;;;;14.82;4.90;;;12.90;99.90;;;;;;4976683;28;20027;-77
2021/09/04 01:24:38;;;;;;;15.88;5.97;;;12.90;99.90;;;;;;4994816;28;20069;-73
2021/09/04 01:27:04;;;;;;;12.63;5.10;;;12.90;99.90;;;;;;4994039;28;20391;-73
2021/09/04 01:29:30;;;;;;;18.48;5.93;;;12.90;99.90;;;;;;4994455;28;20036;-73
2021/09/04 01:31:56;;;;;;;20.70;6.15;;;12.80;99.90;;;;;;4993952;28;20483;-73
2021/09/04 01:34:21;;;;;;;14.43;4.95;;;12.80;99.90;;;;;;4993864;28;20022;-73
2021/09/04 01:36:47;;;;;;;17.00;5.63;;;12.70;99.90;;;;;;4993724;28;20030;-73
2021/09/04 01:39:12;;;;;;;23.23;5.72;;;12.70;99.90;;;;;;4976421;28;20105;-73
2021/09/04 01:41:40;;;;;;;15.00;5.53;;;12.70;99.90;;;;;;4976462;28;20018;-73
2021/09/04 01:44:07;;;;;;;17.35;6.63;;;12.70;99.90;;;;;;4993747;28;20065;-73
2021/09/04 01:46:34;;;;;;;15.57;5.22;;;12.70;99.90;;;;;;4994090;28;20029;-73
2021/09/04 01:49:02;;;;;;;18.80;6.15;;;12.70;99.90;;;;;;4994291;28;20026;-73
2021/09/04 01:51:28;;;;;;;17.00;5.25;;;12.70;99.90;;;;;;4993719;28;20037;-73
2021/09/04 01:53:54;;;;;;;15.52;6.18;;;12.70;99.90;;;;;;4977217;28;20030;-77
2021/09/04 01:56:26;;;;;;;15.63;5.80;;;12.70;99.90;;;;;;4993821;28;20035;-76
2021/09/04 01:58:51;;;;;;;15.45;4.93;;;12.60;99.90;;;;;;4976587;28;20027;-74
2021/09/04 02:01:17;;;;;;;16.42;5.95;;;12.60;99.90;;;;;;4976348;28;20369;-74
2021/09/04 02:03:44;;;;;;;16.83;5.93;;;12.60;99.90;;;;;;4993886;28;20089;-76
2021/09/04 02:06:09;;;;;;;17.42;5.50;;;12.60;99.90;;;;;;4993932;28;20037;-76
2021/09/04 02:08:35;;;;;;;15.55;5.05;;;12.50;99.90;;;;;;4994767;28;20023;-78
2021/09/04 02:11:01;;;;;;;20.27;5.43;;;12.50;99.90;;;;;;4976891;28;20026;-76
2021/09/04 02:13:28;;;;;;;16.60;5.20;;;12.50;99.90;;;;;;4994073;28;20387;-76
2021/09/04 02:15:53;;;;;;;17.30;6.00;;;12.50;99.90;;;;;;4992519;28;20137;-76
2021/09/04 02:18:20;;;;;;;14.82;5.47;;;12.50;99.90;;;;;;5017242;28;20097;-78
2021/09/04 02:20:46;;;;;;;13.88;4.65;;;12.40;99.90;;;;;;5000169;28;20018;-78
2021/09/04 02:23:12;;;;;;;15.30;5.38;;;12.40;99.90;;;;;;5017517;28;20418;-75
2021/09/04 02:25:37;;;;;;;21.33;6.07;;;12.40;99.90;;;;;;5003333;28;20019;-77
2021/09/04 02:28:03;;;;;;;17.08;5.50;;;12.40;99.90;;;;;;4998131;28;20026;-78
2021/09/04 02:30:29;;;;;;;13.55;5.22;;;12.30;99.90;;;;;;4980014;28;20029;-77
2021/09/04 02:32:54;;;;;;;18.08;5.45;;;12.30;99.90;;;;;;4997623;28;20030;-77
2021/09/04 02:35:20;;;;;;;22.58;6.40;;;12.40;99.90;;;;;;5008467;28;20022;-77
2021/09/04 02:37:46;;;;;;;16.73;5.40;;;12.40;99.90;;;;;;4998877;28;20021;-77
2021/09/04 02:40:12;;;;;;;17.42;5.40;;;12.30;99.90;;;;;;5016815;28;20026;-76
2021/09/04 02:42:38;;;;;;;16.23;5.57;;;12.30;99.90;;;;;;5017023;28;20018;-76
2021/09/04 02:45:04;;;;;;;15.98;5.20;;;12.30;99.90;;;;;;5016433;28;20048;-77
2021/09/04 02:47:30;;;;;;;19.80;6.55;;;12.30;99.90;;;;;;5016465;28;20030;-76
2021/09/04 02:49:55;;;;;;;12.98;4.85;;;12.20;99.90;;;;;;5016507;28;20537;-77
2021/09/04 02:52:21;;;;;;;15.60;5.22;;;12.20;99.90;;;;;;5016554;28;20032;-76
2021/09/04 02:54:46;;;;;;;16.88;5.95;;;12.20;99.90;;;;;;5016400;28;20488;-77
2021/09/04 02:57:12;;;;;;;15.10;6.72;;;12.30;99.90;;;;;;5016343;28;20018;-76
2021/09/04 02:59:38;;;;;;;17.95;5.63;;;12.40;99.90;;;;;;5016824;28;20528;-76
2021/09/04 03:02:04;;;;;;;17.45;5.55;;;12.40;99.90;;;;;;5016257;28;20443;-76
2021/09/04 03:04:29;;;;;;;21.35;6.25;;;12.60;99.90;;;;;;5016552;28;20037;-77
2021/09/04 03:06:55;;;;;;;18.45;5.50;;;12.60;99.90;;;;;;4998771;28;20029;-76
2021/09/04 03:09:21;;;;;;;19.38;6.07;;;12.60;99.90;;;;;;5016429;28;20037;-75
2021/09/04 03:11:46;;;;;;;18.75;6.15;;;12.70;99.90;;;;;;4998916;28;20022;-76
2021/09/04 03:14:12;;;;;;;18.45;6.53;;;12.80;99.90;;;;;;5015127;28;20032;-76
2021/09/04 03:16:37;;;;;;;17.17;5.60;;;12.80;99.90;;;;;;4996684;28;20038;-75
2021/09/04 03:19:03;;;;;;;16.38;6.10;;;12.80;99.90;;;;;;4996699;28;20454;-77
2021/09/04 03:21:28;;;;;;;16.70;5.68;;;12.80;99.90;;;;;;4979099;28;20034;-75
2021/09/04 03:23:54;;;;;;;21.13;5.97;;;12.80;99.90;;;;;;4996293;28;20118;-76
2021/09/04 03:26:20;;;;;;;20.27;6.25;;;12.90;99.90;;;;;;4996949;28;20030;-77
2021/09/04 03:28:45;;;;;;;22.38;7.18;;;12.90;99.90;;;;;;5013204;28;20061;-74
2021/09/04 03:31:11;;;;;;;16.05;5.80;;;13.00;99.90;;;;;;4996687;28;20431;-74
2021/09/04 03:33:37;;;;;;;18.05;6.45;;;13.00;99.90;;;;;;4992626;28;20128;-76
2021/09/04 03:36:04;;;;;;;20.17;5.68;;;13.00;99.90;;;;;;4998248;28;20023;-77
2021/09/04 03:38:29;;;;;;;17.05;5.90;;;13.00;99.90;;;;;;4998200;28;20022;-78
2021/09/04 03:40:55;;;;;;;22.80;6.28;;;13.00;99.90;;;;;;4998473;28;20026;-76
2021/09/04 03:43:20;;;;;;;14.27;5.15;;;13.00;99.90;;;;;;5015920;28;20026;-76
2021/09/04 03:45:46;;;;;;;19.58;5.97;;;13.10;99.90;;;;;;4979459;28;20484;-74
2021/09/04 03:48:11;;;;;;;14.77;6.07;;;13.00;99.90;;;;;;4995983;28;20030;-75
2021/09/04 03:50:37;;;;;;;19.40;6.28;;;13.10;99.90;;;;;;4978599;28;20608;-76
2021/09/04 03:53:02;;;;;;;18.35;6.28;;;13.10;99.90;;;;;;4978549;28;20069;-76
2021/09/04 03:55:28;;;;;;;21.08;7.18;;;13.10;99.90;;;;;;4978183;28;20062;-76
2021/09/04 03:57:53;;;;;;;20.05;6.20;;;13.10;99.90;;;;;;4996032;28;20101;-75
2021/09/04 04:00:19;;;;;;;17.30;6.20;;;13.10;99.90;;;;;;4995449;28;20027;-75
2021/09/04 04:02:45;;;;;;;23.55;6.53;;;13.20;99.90;;;;;;4997032;28;20077;-75
2021/09/04 04:05:11;;;;;;;17.55;5.97;;;13.20;99.90;;;;;;5015136;28;20507;-75
2021/09/04 04:07:37;;;;;;;16.92;6.80;;;13.20;99.90;;;;;;4997302;28;20109;-75
2021/09/04 04:10:03;;;;;;;22.08;6.75;;;13.30;99.90;;;;;;5014779;28;20033;-75
2021/09/04 04:12:29;;;;;;;26.83;6.38;;;13.30;99.90;;;;;;5014793;28;20022;-75
2021/09/04 04:14:54;;;;;;;20.67;6.53;;;13.30;99.90;;;;;;5014657;28;20029;-75
2021/09/04 04:17:20;;;;;;;20.65;7.32;;;13.30;99.90;;;;;;5014942;28;20080;-75
2021/09/04 04:19:45;;;;;;;21.15;6.35;;;13.30;99.90;;;;;;5014724;28;20030;-75
2021/09/04 04:22:11;;;;;;;18.83;6.85;;;13.40;99.90;;;;;;5014650;28;20024;-76
2021/09/04 04:24:36;;;;;;;23.30;6.13;;;13.30;99.90;;;;;;4996923;28;20026;-76
2021/09/04 04:27:03;;;;;;;16.63;6.22;;;13.30;99.90;;;;;;5014869;28;20026;-76
2021/09/04 04:29:29;;;;;;;20.05;7.32;;;13.40;99.90;;;;;;5014724;28;20095;-76
2021/09/04 04:31:55;;;;;;;35.78;6.97;;;13.30;99.90;;;;;;5014406;28;20483;-75
2021/09/04 04:34:20;;;;;;;19.45;6.32;;;13.30;99.90;;;;;;4996712;28;20072;-75
2021/09/04 04:36:46;;;;;;;21.27;5.50;;;13.30;99.90;;;;;;5014652;28;20053;-77
2021/09/04 04:39:13;;;;;;;22.33;5.95;;;13.40;99.90;;;;;;5014956;28;20021;-77
2021/09/04 04:41:39;;;;;;;18.70;6.22;;;13.30;99.90;;;;;;4981284;28;20069;-78
2021/09/04 04:44:13;;;;;;;19.23;5.20;;;13.30;99.90;;;;;;4995384;28;20014;-78
2021/09/04 04:46:39;;;;;;;19.20;6.57;;;13.40;99.90;;;;;;4995535;28;20030;-78
2021/09/04 04:49:04;;;;;;;17.58;6.35;;;13.40;99.90;;;;;;4994741;28;20037;-78
2021/09/04 04:51:30;;;;;;;19.35;5.43;;;13.40;99.90;;;;;;4992051;28;20037;-78
2021/09/04 04:53:55;;;;;;;21.85;6.55;;;13.40;99.90;;;;;;5028684;22;20041;-78
2021/09/04 04:56:21;;;;;;;23.63;8.15;;;13.40;99.90;;;;;;4996826;28;20033;-77
2021/09/04 04:58:46;;;;;;;18.17;5.70;;;13.50;99.90;;;;;;5014537;28;20156;-77
2021/09/04 05:01:12;;;;;;;19.48;5.82;;;13.40;99.90;;;;;;5014602;28;20036;-77
2021/09/04 05:03:37;;;;;;;16.15;6.32;;;13.40;99.90;;;;;;4996502;28;20020;-77
2021/09/04 05:06:04;;;;;;;22.15;5.53;;;13.40;99.90;;;;;;4996897;28;20018;-77
2021/09/04 05:08:29;;;;;;;17.23;5.85;;;13.40;99.90;;;;;;5014173;28;20472;-77
2021/09/04 05:10:55;;;;;;;17.02;5.72;;;13.40;99.90;;;;;;5015751;28;20084;-77
2021/09/04 05:13:21;;;;;;;20.70;6.32;;;13.40;99.90;;;;;;5014035;28;20463;-77
2021/09/04 05:15:47;;;;;;;21.98;5.43;;;13.40;99.90;;;;;;5013705;28;20101;-76
2021/09/04 05:18:13;;;;;;;21.00;5.85;;;13.50;99.90;;;;;;5013926;28;20029;-77
2021/09/04 05:20:38;;;;;;;16.58;5.13;;;13.50;99.90;;;;;;5019844;28;20028;-77
2021/09/04 05:23:04;;;;;;;17.00;5.10;;;13.50;99.90;;;;;;5016263;28;20116;-75
2021/09/04 05:25:29;;;;;;;12.90;4.65;;;13.50;99.90;;;;;;5033665;28;20037;-76
2021/09/04 05:27:55;;;;;;;15.00;4.43;;;13.50;99.90;;;;;;5033670;28;20493;-76
2021/09/04 05:30:21;;;;;;;15.73;4.80;;;13.50;99.90;;;;;;5028788;28;20018;-76
2021/09/04 05:32:46;;;;;;;17.50;5.15;;;13.50;99.90;;;;;;5060122;23;20044;-76
2021/09/04 05:35:12;;;;;;;15.82;5.30;;;13.50;99.90;;;;;;5056209;28;20029;-76
2021/09/04 05:37:37;;;;;;;11.65;4.47;;;13.60;99.90;;;;;;5073747;28;20114;-77
2021/09/04 05:40:03;;;;;;;16.10;5.82;;;13.60;99.90;;;;;;5054751;28;20166;-75
2021/09/04 05:42:29;;;;;;;13.40;4.40;;;13.60;99.90;;;;;;5073530;28;20508;-74
2021/09/04 05:44:54;;;;;;;12.93;4.95;;;13.60;99.90;;;;;;5073316;28;20020;-75
2021/09/04 05:47:20;;;;;;;14.57;5.05;;;13.60;99.90;;;;;;5071956;28;20037;-79
2021/09/04 05:49:45;;;;;;;19.65;6.35;;;13.50;99.90;;;;;;5053634;28;20040;-74
2021/09/04 05:52:11;;;;;;;12.10;4.22;;;13.60;99.90;;;;;;5038877;28;20079;-78
2021/09/04 05:54:36;;;;;;;16.60;4.72;;;13.60;99.90;;;;;;5058040;28;20478;-74
2021/09/04 05:57:02;;;;;;;13.98;4.70;;;13.60;99.90;;;;;;5073650;28;20032;-74
2021/09/04 05:59:28;;;;;;;14.55;5.45;;;13.60;99.90;;;;;;5059729;28;20017;-76
2021/09/04 06:01:53;;;;;;;14.10;4.90;;;13.60;99.90;;;;;;5077098;28;20473;-77
2021/09/04 06:04:19;;;;;;;9.18;4.47;;;13.70;99.90;;;;;;5076379;28;20017;-78
2021/09/04 06:06:46;;;;;;;12.10;5.10;;;13.70;99.90;;;;;;5083551;22;20059;-75
2021/09/04 06:09:11;;;;;;;9.88;4.35;;;13.70;99.90;;;;;;5077118;28;20017;-76
2021/09/04 06:11:37;;;;;;;12.38;5.45;;;13.70;99.90;;;;;;5077270;28;20016;-77
2021/09/04 06:14:03;;;;;;;13.18;4.35;;;13.70;99.90;;;;;;5059579;28;20485;-75
2021/09/04 06:16:28;;;;;;;16.15;4.20;;;13.70;99.90;;;;;;5077711;28;20021;-74
2021/09/04 06:18:54;;;;;;;9.00;3.85;;;13.70;99.90;;;;;;5076998;28;20020;-75
2021/09/04 06:21:19;;;;;;;9.65;3.80;;;13.80;99.90;;;;;;5077278;28;20056;-76
2021/09/04 06:23:45;;;;;;;17.02;4.80;;;13.80;99.90;;;;;;5077071;28;20032;-74
2021/09/04 06:26:11;;;;;;;14.38;4.25;;;13.80;99.90;;;;;;5059008;28;20489;-77
2021/09/04 06:28:37;;;;;;;14.90;4.60;;;13.90;99.90;;;;;;5055241;22;20041;-78
2021/09/04 06:31:02;;;;;;;15.40;5.10;;;13.90;99.90;;;;;;5038883;28;20017;-76
2021/09/04 06:33:28;;;;;;;15.88;4.22;;;13.90;99.90;;;;;;5056413;28;20028;-77
2021/09/04 06:35:54;;;;;;;9.93;4.20;;;14.00;99.90;;;;;;5056693;28;20025;-76
2021/09/04 06:38:20;;;;;;;11.82;4.55;;;14.00;99.90;;;;;;5056417;28;20037;-75
2021/09/04 06:40:46;;;;;;;12.90;4.32;;;14.00;99.90;;;;;;5056346;28;20021;-76
2021/09/04 06:43:11;;;;;;;13.38;4.53;;;14.00;99.90;;;;;;5055226;28;20539;-76
2021/09/04 06:45:37;;;;;;;14.77;5.25;;;14.00;99.90;;;;;;5057643;22;20140;-76
2021/09/04 06:48:03;;;;;;;10.43;4.88;;;14.00;99.90;;;;;;5016852;28;20105;-77
2021/09/04 06:50:28;;;;;;;13.63;4.75;;;14.10;99.90;;;;;;4998935;28;20052;-76
2021/09/04 06:52:54;;;;;;;12.35;4.43;;;14.10;99.90;;;;;;5016431;28;20149;-75
2021/09/04 06:55:20;;;;;;;11.55;4.57;;;14.10;99.90;;;;;;5016678;28;20109;-77
2021/09/04 06:57:45;;;;;;;9.30;3.95;;;14.20;99.90;;;;;;5020897;28;20025;-74
2021/09/04 07:00:11;;;;;;;12.93;4.72;;;14.20;99.90;;;;;;5018239;28;20407;-76
2021/09/04 07:02:37;;;;;;;14.55;4.82;;;14.20;99.90;;;;;;5046597;22;20021;-74
2021/09/04 07:05:04;;;;;;;14.32;4.72;;;14.30;99.90;;;;;;4999190;28;20026;-77
2021/09/04 07:07:29;;;;;;;11.15;4.55;;;14.30;99.90;;;;;;4998648;28;20116;-77
2021/09/04 07:09:55;;;;;;;11.75;4.03;;;14.40;99.90;;;;;;5017008;28;20049;-76
2021/09/04 07:12:21;;;;;;;12.45;4.30;;;14.40;99.90;;;;;;5015973;28;20037;-76
2021/09/04 07:14:46;;;;;;;12.40;4.35;;;14.40;99.90;;;;;;5015875;28;20029;-76
2021/09/04 07:17:12;;;;;;;10.98;4.50;;;14.50;99.90;;;;;;5018284;28;20026;-76
2021/09/04 07:19:38;;;;;;;12.38;4.68;;;14.50;99.90;;;;;;5035784;28;20025;-76
2021/09/04 07:22:04;;;;;;;15.48;5.25;;;14.60;99.90;;;;;;5035872;28;20045;-76
2021/09/04 07:24:30;;;;;;;11.52;4.68;;;14.70;99.90;;;;;;5017868;28;20105;-74
2021/09/04 07:26:55;;;;;;;15.80;4.85;;;14.70;99.90;;;;;;5031695;22;20124;-75
2021/09/04 07:29:24;;;;;;;13.05;5.07;;;14.70;99.90;;;;;;5015700;28;20101;-75
2021/09/04 07:31:49;;;;;;;10.90;4.90;;;14.80;99.90;;;;;;5015907;28;20598;-75
2021/09/04 07:34:15;;;;;;;17.77;4.35;;;14.70;99.90;;;;;;4998480;28;20045;-75
2021/09/04 07:36:41;;;;;;;9.13;3.75;;;14.80;99.90;;;;;;5027004;28;20032;-77
2021/09/04 07:39:06;;;;;;;11.60;3.42;;;14.90;99.90;;;;;;5017859;28;20020;-75
2021/09/04 07:41:32;;;;;;;14.75;3.88;;;15.00;99.90;;;;;;5044668;22;20042;-74
2021/09/04 07:43:57;;;;;;;13.65;4.72;;;15.00;99.90;;;;;;5015874;28;20018;-75
2021/09/04 07:46:23;;;;;;;10.77;4.45;;;15.10;99.90;;;;;;5004475;28;20448;-75
2021/09/04 07:48:49;;;;;;;10.27;4.10;;;15.20;99.90;;;;;;5017645;28;20059;-77
2021/09/04 07:51:15;;;;;;;12.07;5.00;;;15.30;99.90;;;;;;5035211;28;20087;-77
2021/09/04 07:53:40;;;;;;;11.98;4.90;;;15.30;99.90;;;;;;5035525;28;20029;-75
2021/09/04 07:56:06;;;;;;;11.52;4.13;;;15.50;99.90;;;;;;5035667;28;20025;-77
2021/09/04 07:58:32;;;;;;;8.32;3.78;;;15.60;99.90;;;;;;5021726;28;20022;-77
2021/09/04 08:00:58;;;;;;;13.32;4.25;;;15.70;99.90;;;;;;5038925;28;20048;-77
2021/09/04 08:03:24;;;;;;;11.15;4.53;;;15.70;99.90;;;;;;5002847;28;20048;-77
2021/09/04 08:05:50;;;;;;;13.10;4.28;;;15.80;99.90;;;;;;5020196;28;20065;-77
2021/09/04 08:08:15;;;;;;;17.35;5.22;;;15.80;99.90;;;;;;5002188;28;20018;-77
2021/09/04 08:10:43;;;;;;;13.40;4.97;;;15.90;99.90;;;;;;5019653;28;20022;-77
2021/09/04 08:13:10;;;;;;;9.83;4.00;;;16.00;99.90;;;;;;5019073;28;20053;-77
2021/09/04 08:15:36;;;;;;;11.15;4.30;;;16.10;99.90;;;;;;5019055;28;20401;-77
2021/09/04 08:18:02;;;;;;;12.00;4.13;;;16.40;99.90;;;;;;5016790;28;20076;-76
2021/09/04 08:20:30;;;;;;;11.20;4.07;;;16.30;99.90;;;;;;5014866;28;20061;-76
2021/09/04 08:22:55;;;;;;;11.20;4.00;;;16.40;99.90;;;;;;4997391;28;20041;-77
2021/09/04 08:25:25;;;;;;;7.35;3.38;;;16.50;99.90;;;;;;5015009;28;20022;-76
2021/09/04 08:27:51;;;;;;;13.98;3.83;;;16.50;99.90;;;;;;5027637;28;20060;-77
2021/09/04 08:30:16;;;;;;;10.73;3.55;;;16.50;99.90;;;;;;5016788;28;20103;-74
2021/09/04 08:32:42;;;;;;;12.73;4.45;;;16.40;99.90;;;;;;5016645;28;20021;-76
2021/09/04 08:35:08;;;;;;;10.52;3.55;;;16.50;99.90;;;;;;5034723;28;20386;-74
2021/09/04 08:37:34;;;;;;;7.78;3.83;;;16.60;99.90;;;;;;5023189;28;20041;-77
2021/09/04 08:40:00;;;;;;;8.70;3.65;;;16.60;99.90;;;;;;4996889;28;20026;-74
2021/09/04 08:42:25;;;;;;;8.77;3.70;;;16.70;99.90;;;;;;4996738;28;20030;-74
2021/09/04 08:44:51;;;;;;;10.35;2.92;;;16.80;99.90;;;;;;5014477;28;20034;-76
2021/09/04 08:47:20;;;;;;;12.70;4.75;;;16.90;99.90;;;;;;5062892;22;20051;-76
2021/09/04 08:49:47;;;;;;;10.55;3.42;;;16.90;99.90;;;;;;5056103;28;20017;-76
2021/09/04 08:52:13;;;;;;;12.40;4.18;;;17.10;99.90;;;;;;5056220;28;20470;-75
2021/09/04 08:54:38;;;;;;;10.82;4.07;;;17.10;99.90;;;;;;5074111;28;20021;-74
2021/09/04 08:57:04;;;;;;;10.50;4.30;;;17.20;99.90;;;;;;5074336;28;20473;-76
2021/09/04 08:59:30;;;;;;;7.68;2.80;;;17.20;99.90;;;;;;5055817;28;20084;-76
2021/09/04 09:01:55;;;;;;;11.38;3.25;;;17.30;99.90;;;;;;5055790;28;20503;-77
2021/09/04 09:04:23;;;;;;;7.05;2.83;;;17.50;99.90;;;;;;5055037;28;20021;-77
2021/09/04 09:06:48;;;;;;;8.30;3.47;;;17.60;99.90;;;;;;5073364;28;20033;-76
2021/09/04 09:09:19;;;;;;;9.30;3.30;;;17.80;99.90;;;;;;5055734;28;20056;-76
2021/09/04 09:11:49;;;;;;;14.48;3.53;;;17.90;99.90;;;;;;5073766;28;20025;-75
2021/09/04 09:14:15;;;;;;;8.35;3.22;;;18.10;99.90;;;;;;5073928;28;20095;-75
2021/09/04 09:16:50;;;;;;;10.93;3.42;;;18.20;99.90;;;;;;5073262;28;20119;-74
2021/09/04 09:19:15;;;;;;;9.30;2.72;;;18.40;99.90;;;;;;5073641;28;20024;-74
2021/09/04 09:21:41;;;;;;;9.10;3.25;;;18.60;99.90;;;;;;5055458;28;20115;-75
2021/09/04 09:24:31;;;;;;;8.75;3.13;;;18.70;99.90;;;;;;5055500;28;20063;-76
2021/09/04 09:27:05;;;;;;;8.65;3.67;;;18.70;99.90;;;;;;5073371;28;20031;-75
2021/09/04 09:29:35;;;;;;;10.73;3.40;;;18.60;99.90;;;;;;5048861;22;20124;-75
2021/09/04 09:32:04;;;;;;;8.75;3.50;;;18.70;99.90;;;;;;5033450;28;20027;-74
2021/09/04 09:34:30;;;;;;;;;;;18.70;99.90;;;;;;5033968;28;20030;-75
2021/09/04 09:37:01;;;;;;;9.18;3.92;;;18.90;99.90;;;;;;5033417;28;19949;-76
2021/09/04 09:39:29;;;;;;;7.43;3.17;;;19.10;99.90;;;;;;5032887;28;20068;-75
2021/09/04 09:41:56;;;;;;;10.68;3.47;;;19.20;99.90;;;;;;5015778;28;20108;-77
2021/09/04 09:44:25;;;;;;;9.48;3.35;;;19.10;99.90;;;;;;5033653;28;20101;-76
2021/09/04 09:46:56;;;;;;;9.38;3.22;;;19.00;99.90;;;;;;5033667;28;20475;-76
2021/09/04 09:49:27;;;;;;;11.75;4.18;;;19.10;99.90;;;;;;5018537;28;20487;-75
2021/09/04 09:51:57;;;;;;;6.97;3.33;;;19.10;99.90;;;;;;5013717;28;20112;-77
2021/09/04 09:54:25;;;;;;;7.55;3.03;;;19.30;99.90;;;;;;5013464;28;20037;-75
2021/09/04 09:56:52;;;;;;;6.93;2.92;;;19.30;99.90;;;;;;5009180;28;20065;-76
2021/09/04 09:59:23;;;;;;;10.13;3.10;;;19.70;99.90;;;;;;5018485;28;20025;-77
2021/09/04 10:01:50;;;;;;;8.40;2.90;;;20.10;99.90;;;;;;4995755;28;20026;-77
2021/09/04 10:04:16;;;;;;;11.32;3.47;;;20.30;99.90;;;;;;5017016;28;20017;-76
2021/09/04 10:06:43;;;;;;;12.40;4.07;;;20.20;99.90;;;;;;5033539;28;20079;-74
2021/09/04 10:09:09;;;;;;;9.20;3.53;;;20.10;99.90;;;;;;5033144;28;20514;-74
2021/09/04 10:11:38;;;;;;;10.25;3.50;;;20.00;99.90;;;;;;5033085;28;20030;-74
2021/09/04 10:14:04;;;;;;;9.20;3.00;;;20.00;99.90;;;;;;5015087;28;20475;-74
2021/09/04 10:16:30;;;;;;;7.13;3.00;;;19.90;99.90;;;;;;5033107;28;20471;-74
2021/09/04 10:18:56;;;;;;;11.88;3.10;;;19.80;99.90;;;;;;5033067;28;20017;-74
2021/09/04 10:21:26;;;;;;;8.65;3.65;;;20.30;99.90;;;;;;5032859;28;20033;-74
2021/09/04 10:23:53;;;;;;;6.40;2.40;;;19.70;99.90;;;;;;5032999;28;20100;-74
2021/09/04 10:26:35;;;;;;;7.68;2.63;;;19.70;99.90;;;;;;5032705;28;20491;-74
2021/09/04 10:29:06;;;;;;;6.93;2.20;;;19.70;99.90;;;;;;5032420;28;20029;-74
2021/09/04 10:31:59;;;;;;;6.65;3.35;;;19.80;99.90;;;;;;5032857;28;20026;-74
2021/09/04 10:34:32;;;;;;;6.07;3.17;;;20.10;99.90;;;;;;5014972;28;20364;-74
2021/09/04 10:36:59;;;;;;;8.55;3.55;;;20.20;99.90;;;;;;5033324;28;20079;-74
2021/09/04 10:39:44;;;;;;;7.60;3.10;;;20.20;99.90;;;;;;5036464;28;20029;-74
2021/09/04 10:42:10;;;;;;;9.00;3.63;;;20.40;99.90;;;;;;5036766;28;20395;-76
2021/09/04 10:44:39;;;;;;;9.38;2.80;;;20.50;99.90;;;;;;5007694;28;20037;-76
2021/09/04 10:47:07;;;;;;;9.10;3.22;;;20.60;99.90;;;;;;5016805;28;20521;-74
2021/09/04 10:49:41;;;;;;;6.70;2.92;;;20.50;99.90;;;;;;4998970;28;20026;-76
2021/09/04 10:52:08;;;;;;;7.10;2.97;;;20.60;99.90;;;;;;4999049;28;20475;-76
2021/09/04 10:55:31;;;;;;;10.07;3.20;;;20.70;99.90;;;;;;5017040;28;20055;-77
2021/09/04 10:58:08;;;;;;;6.75;2.53;;;20.80;99.90;;;;;;4936881;29;20118;-75
2021/09/04 11:00:42;;;;;;;8.27;2.83;;;20.90;99.90;;;;;;4936835;29;20039;-77
2021/09/04 11:03:19;;;;;;;6.90;2.08;;;21.10;99.90;;;;;;4980841;28;20114;-75
2021/09/04 11:05:48;;;;;;;7.78;3.20;;;21.20;99.90;;;;;;5037927;22;20053;-76
2021/09/04 11:08:19;;;;;;;;;;;21.20;99.90;;;;;;5076317;28;20114;-78
2021/09/04 11:10:47;;;;;;;11.20;2.83;;;21.30;99.90;;;;;;5058163;28;19912;-74
2021/09/04 11:13:12;;;;;;;5.70;2.38;;;21.50;99.90;;;;;;5075784;28;20056;-75
2021/09/04 11:15:46;;;;;;;7.75;3.00;;;21.70;99.90;;;;;;5074490;28;20077;-75
2021/09/04 11:18:13;;;;;;;5.93;2.58;;;21.90;99.70;;;;;;5078214;28;20032;-76
2021/09/04 11:20:47;;;;;;;7.03;3.20;;;22.10;99.80;;;;;;5083914;28;20066;-75
2021/09/04 11:23:23;;;;;;;8.82;2.67;;;22.30;99.90;;;;;;5075594;28;20028;-77
2021/09/04 11:25:49;;;;;;;5.43;2.28;;;22.40;98.70;;;;;;5058052;28;20035;-77
2021/09/04 11:28:33;;;;;;;8.02;3.40;;;22.60;97.00;;;;;;5075722;28;20107;-77
2021/09/04 11:31:00;;;;;;;8.40;2.88;;;22.60;96.40;;;;;;5075702;28;20039;-77
2021/09/04 11:33:26;;;;;;;8.88;2.85;;;22.70;95.50;;;;;;5074974;28;20127;-78
2021/09/04 11:35:54;;;;;;;4.97;2.10;;;22.80;95.30;;;;;;5096198;28;20072;-78
2021/09/04 11:38:21;;;;;;;6.22;2.75;;;23.00;95.10;;;;;;5096669;28;20021;-77
2021/09/04 11:40:47;;;;;;;7.43;2.78;;;23.10;94.00;;;;;;5066799;28;20450;-74
2021/09/04 11:43:16;;;;;;;7.00;2.45;;;23.20;93.10;;;;;;5073829;28;20017;-74
2021/09/04 11:45:42;;;;;;;;;;;23.40;91.70;;;;;;5075356;28;20067;-74
2021/09/04 11:48:13;;;;;;;5.15;2.90;;;23.40;91.70;;;;;;5075028;28;20286;-74
2021/09/04 11:50:39;;;;;;;17.30;2.45;;;23.50;91.40;;;;;;5073850;28;20028;-74
2021/09/04 11:53:10;;;;;;;6.75;2.28;;;23.50;90.90;;;;;;5075197;28;20043;-75
2021/09/04 11:55:37;;;;;;;8.20;2.97;;;23.70;90.40;;;;;;5075518;28;20063;-73
2021/09/04 11:58:04;;;;;;;4.93;2.03;;;23.80;89.60;;;;;;5074974;28;20060;-76
2021/09/04 12:00:35;;;;;;;4.82;2.45;;;23.90;90.20;;;;;;5056902;28;20016;-75
2021/09/04 12:03:09;;;;;;;6.97;2.42;;;24.10;87.20;;;;;;5057598;28;20032;-75
2021/09/04 12:05:43;;;;;;;5.40;2.28;;;24.10;86.80;;;;;;5061701;28;20020;-74
2021/09/04 12:08:24;;;;;;;5.00;1.70;;;24.20;88.10;;;;;;5078887;28;20064;-75
2021/09/04 12:10:50;;;;;;;4.00;1.50;;;24.30;83.70;;;;;;5060992;28;20025;-75
2021/09/04 12:13:21;;;;;;;5.38;2.15;;;24.40;83.50;;;;;;5058060;23;20045;-75
2021/09/04 12:15:51;;;;;;;6.07;1.85;;;24.70;84.30;;;;;;5054811;28;20459;-75
2021/09/04 12:18:29;;;;;;;3.72;1.80;;;24.70;83.30;;;;;;5076585;22;20094;-77
2021/09/04 12:20:56;;;;;;;4.97;2.15;;;24.90;81.30;;;;;;5037299;28;20048;-78
2021/09/04 12:23:25;;;;;;;5.40;2.22;;;25.00;79.30;;;;;;5054473;28;20526;-75
2021/09/04 12:25:52;;;;;;;1.98;0.98;;;25.00;77.90;;;;;;5051603;28;20028;-75
2021/09/04 12:28:26;;;;;;;7.38;2.03;;;25.20;80.00;;;;;;5061709;22;20098;-74
2021/09/04 12:31:05;;;;;;;7.43;2.28;;;25.50;77.30;;;;;;4997486;28;20026;-74
2021/09/04 12:33:32;;;;;;;9.05;2.20;;;25.60;76.70;;;;;;5002788;28;20387;-75
2021/09/04 12:36:01;;;;;;;8.38;1.67;;;25.60;76.40;;;;;;5034181;28;20032;-75
2021/09/04 12:38:32;;;;;;;5.50;1.80;;;25.70;77.10;;;;;;5016633;28;20087;-76
2021/09/04 12:41:06;;;;;;;6.88;1.90;;;25.80;73.70;;;;;;5035400;28;20100;-74